Terminal Aerodrome Forecast
Issued by NWS

Home | Current Version | Previous Version | Text Only | Print | Product List | Glossary On
Versions: 1 2 3 4 5 6 7 8 9 10 11 12 13 14 15 16 17 18
000
FTUS42 KGSP 252335
TAFHKY
TAF
KHKY 252335Z 2600/2624 20007KT P6SM OVC100
      TEMPO 2607/2609 4SM -SHRA BR SCT008 OVC025
     FM260900 VRB03KT 4SM -SHRA BR OVC060
     FM261300 VRB02KT 3SM -SHRA BR OVC020
     FM261500 VRB03KT 3SM BR OVC010 PROB30 2615/2617 2SM -RA BR
      OVC008
     FM261700 VRB03KT P6SM OVC008 PROB30 2617/2621 2SM -SHRA OVC004
     FM262300 04005KT P6SM BKN040=

USA.gov is the U.S. government's official web portal to all federal, state and local government web resources and services.